createdAt,value
2019-03-11T00:02:00.048Z,39.70
2019-03-11T00:04:30.531Z,40.47
2019-03-11T00:07:03.543Z,39.93
2019-03-11T00:09:33.920Z,40.64
2019-03-11T00:12:04.544Z,38.90
2019-03-11T00:14:35.386Z,38.39
2019-03-11T00:17:06.119Z,38.50
2019-03-11T00:19:36.723Z,38.17
2019-03-11T00:22:07.515Z,38.76
2019-03-11T00:24:37.963Z,39.21
2019-03-11T00:27:10.972Z,39.59
2019-03-11T00:29:41.325Z,40.13
2019-03-11T00:32:11.875Z,39.95
2019-03-11T00:34:42.287Z,40.01
2019-03-11T00:37:12.835Z,40.51
2019-03-11T00:39:43.659Z,39.18
2019-03-11T00:42:14.119Z,38.40
2019-03-11T00:44:44.638Z,37.41
2019-03-11T00:47:15.309Z,36.34
2019-03-11T00:49:45.880Z,35.70
2019-03-11T00:52:16.348Z,35.22
2019-03-11T00:54:47.026Z,34.56
2019-03-11T00:57:19.274Z,34.06
2019-03-11T00:59:49.985Z,33.55
2019-03-11T01:02:20.405Z,33.31
2019-03-11T01:04:50.766Z,33.06
2019-03-11T01:07:21.349Z,32.81
2019-03-11T01:09:51.798Z,32.63
2019-03-11T01:12:22.188Z,33.22
2019-03-11T01:14:52.725Z,34.46
2019-03-11T01:17:23.108Z,35.12
2019-03-11T01:19:53.435Z,35.95
2019-03-11T01:22:23.917Z,35.97
2019-03-11T01:24:54.349Z,36.74
2019-03-11T01:27:24.720Z,37.70
2019-03-11T01:29:55.129Z,37.70
2019-03-11T01:32:25.605Z,38.43
2019-03-11T01:34:56.059Z,39.30
2019-03-11T01:37:26.546Z,39.38
2019-03-11T01:39:56.973Z,39.70
2019-03-11T01:42:27.428Z,39.75
2019-03-11T01:45:00.446Z,39.97
2019-03-11T01:47:30.797Z,40.38
2019-03-11T01:50:01.226Z,40.65
2019-03-11T01:52:31.772Z,39.99
2019-03-11T01:55:02.219Z,39.42
2019-03-11T01:57:32.438Z,38.90
2019-03-11T02:00:02.764Z,38.13
2019-03-11T02:02:33.265Z,36.85
2019-03-11T02:05:06.255Z,36.03
2019-03-11T02:07:36.857Z,34.88
2019-03-11T02:10:07.972Z,34.23
2019-03-11T02:12:38.545Z,35.61
2019-03-11T02:15:10.347Z,36.25
2019-03-11T02:17:40.891Z,36.93
2019-03-11T02:20:13.250Z,36.86
2019-03-11T02:22:43.775Z,37.62
2019-03-11T02:25:14.899Z,38.32
2019-03-11T02:27:45.400Z,38.70
2019-03-11T02:30:16.319Z,38.65
2019-03-11T02:32:46.853Z,39.04
2019-03-11T02:35:27.303Z,39.43
2019-03-11T02:37:58.189Z,39.62
2019-03-11T02:40:28.795Z,39.79
2019-03-11T02:42:59.275Z,39.90
2019-03-11T02:45:29.646Z,39.97
2019-03-11T02:48:00.290Z,40.30
2019-03-11T02:50:33.810Z,39.40
2019-03-11T02:53:05.236Z,39.18
2019-03-11T02:55:35.681Z,38.69
2019-03-11T02:58:06.229Z,38.26
2019-03-11T03:00:36.721Z,36.97
2019-03-11T03:03:26.210Z,36.30
2019-03-11T03:06:00.736Z,35.76
2019-03-11T03:08:31.355Z,35.45
2019-03-11T03:11:01.883Z,35.16
2019-03-11T03:13:32.304Z,34.81
2019-03-11T03:16:02.752Z,34.93
2019-03-11T03:18:35.617Z,34.84
2019-03-11T03:21:06.077Z,35.02
2019-03-11T03:23:36.549Z,35.46
2019-03-11T03:26:06.984Z,35.27
2019-03-11T03:28:37.443Z,35.44
2019-03-11T03:31:07.925Z,35.76
2019-03-11T03:33:38.337Z,35.48
2019-03-11T03:36:08.887Z,35.54
2019-03-11T03:38:39.247Z,35.57
2019-03-11T03:41:09.778Z,35.72
2019-03-11T03:43:40.222Z,35.81
2019-03-11T03:46:18.835Z,35.89
2019-03-11T03:48:43.150Z,35.90
2019-03-11T03:51:13.649Z,35.62
2019-03-11T03:53:44.190Z,35.57
2019-03-11T03:56:14.612Z,35.58
2019-03-11T03:58:45.106Z,35.29
2019-03-11T04:01:15.600Z,35.35
2019-03-11T04:03:46.056Z,35.54
2019-03-11T04:06:16.603Z,35.30
2019-03-11T04:08:47.105Z,35.49
2019-03-11T04:11:17.685Z,35.57
2019-03-11T04:13:48.135Z,35.41
2019-03-11T04:16:18.650Z,35.69
2019-03-11T04:18:59.278Z,35.36
2019-03-11T04:21:29.888Z,35.67
2019-03-11T04:24:00.355Z,35.65
2019-03-11T04:26:32.091Z,35.59
2019-03-11T04:29:02.663Z,35.36
2019-03-11T04:31:33.230Z,35.56
2019-03-11T04:34:03.568Z,35.62
2019-03-11T04:36:34.025Z,35.52
2019-03-11T04:39:05.730Z,35.57
2019-03-11T04:41:36.223Z,35.39
2019-03-11T04:44:07.078Z,35.35
2019-03-11T04:46:37.713Z,35.52
2019-03-11T04:49:07.995Z,35.23
2019-03-11T04:51:38.359Z,35.39
2019-03-11T04:54:08.927Z,35.16
2019-03-11T04:56:39.426Z,35.04
2019-03-11T04:59:17.245Z,35.14
2019-03-11T05:01:47.822Z,35.22
2019-03-11T05:04:18.396Z,35.11
2019-03-11T05:06:48.778Z,35.40
2019-03-11T05:09:19.183Z,35.58
2019-03-11T05:11:49.589Z,35.97
2019-03-11T05:14:20.117Z,36.52
2019-03-11T05:16:50.608Z,36.25
2019-03-11T05:19:21.417Z,36.19
2019-03-11T05:21:52.226Z,36.48
2019-03-11T05:24:22.829Z,36.59
2019-03-11T05:26:53.358Z,36.78
2019-03-11T05:29:23.921Z,37.20
2019-03-11T05:31:54.402Z,37.25
2019-03-11T05:34:24.773Z,36.98
2019-03-11T05:36:55.453Z,37.00
2019-03-11T05:39:26.008Z,37.40
2019-03-11T05:41:56.719Z,37.56
2019-03-11T05:44:27.132Z,37.34
2019-03-11T05:46:57.745Z,37.40
2019-03-11T05:49:28.512Z,37.62
2019-03-11T05:51:59.213Z,37.61
2019-03-11T05:54:29.603Z,37.92
2019-03-11T05:57:00.202Z,37.46
2019-03-11T05:59:30.700Z,37.69
2019-03-11T06:02:01.150Z,37.85
2019-03-11T06:04:31.966Z,37.98
2019-03-11T06:07:02.473Z,38.18
2019-03-11T06:09:33.001Z,37.94
2019-03-11T06:12:03.306Z,38.21
2019-03-11T06:14:34.064Z,37.83
2019-03-11T06:17:04.514Z,38.03
2019-03-11T06:19:34.942Z,37.44
2019-03-11T06:22:18.059Z,37.09
2019-03-11T06:24:48.651Z,36.85
2019-03-11T06:27:19.071Z,36.72
2019-03-11T06:29:49.345Z,36.79
2019-03-11T06:32:19.767Z,36.76
2019-03-11T06:34:50.298Z,36.87
2019-03-11T06:37:22.489Z,36.58
2019-03-11T06:39:53.218Z,36.31
2019-03-11T06:42:24.037Z,36.52
2019-03-11T06:44:54.508Z,36.30
2019-03-11T06:47:24.957Z,36.63
2019-03-11T06:49:55.517Z,35.97
2019-03-11T06:52:26.126Z,35.40
2019-03-11T06:54:56.751Z,35.73
2019-03-11T06:57:27.263Z,35.36
2019-03-11T07:00:01.396Z,35.81
2019-03-11T07:02:32.027Z,35.43
2019-03-11T07:05:02.933Z,35.79
2019-03-11T07:07:33.374Z,35.74
2019-03-11T07:10:04.314Z,35.58
2019-03-11T07:12:34.805Z,35.13
2019-03-11T07:15:07.818Z,35.06
2019-03-11T07:17:38.147Z,34.17
2019-03-11T07:20:11.493Z,33.12
2019-03-11T07:22:41.999Z,32.30
2019-03-11T07:25:12.380Z,30.11
2019-03-11T07:27:42.715Z,29.23
2019-03-11T07:30:14.015Z,29.43
2019-03-11T07:32:44.454Z,30.51
2019-03-11T07:35:14.816Z,31.93
2019-03-11T07:37:45.474Z,32.24
2019-03-11T07:40:16.116Z,31.89
2019-03-11T07:42:46.751Z,31.55
2019-03-11T07:45:17.389Z,30.43
2019-03-11T07:47:47.723Z,30.10
2019-03-11T07:50:18.824Z,31.03
2019-03-11T07:52:49.385Z,30.68
2019-03-11T07:55:19.726Z,29.58
2019-03-11T07:57:50.159Z,29.58
2019-03-11T08:00:20.496Z,29.58
2019-03-11T08:02:56.636Z,30.00
2019-03-11T08:05:26.777Z,30.36
2019-03-11T08:07:56.869Z,30.32
2019-03-11T08:10:27.117Z,30.80
2019-03-11T08:12:57.524Z,30.89
2019-03-11T08:15:27.428Z,30.77
2019-03-11T08:17:57.301Z,31.40
2019-03-11T08:20:27.493Z,30.88
2019-03-11T08:22:57.609Z,30.75
2019-03-11T08:25:28.024Z,30.49
2019-03-11T08:27:58.234Z,30.57
2019-03-11T08:30:28.149Z,31.17
2019-03-11T08:32:58.524Z,31.12
2019-03-11T08:35:28.776Z,30.74
2019-03-11T08:38:04.579Z,30.67
2019-03-11T08:40:31.453Z,30.75
2019-03-11T08:43:01.759Z,30.75
2019-03-11T08:45:32.118Z,29.52
2019-03-11T08:48:02.215Z,28.54
2019-03-11T08:50:32.227Z,28.25
2019-03-11T08:53:02.810Z,28.53
2019-03-11T08:55:33.042Z,28.26
2019-03-11T08:58:03.536Z,27.67
2019-03-11T09:00:33.844Z,25.67
2019-03-11T09:03:04.072Z,24.61
2019-03-11T09:05:34.423Z,23.66
2019-03-11T09:08:04.916Z,23.16
2019-03-11T09:10:35.071Z,22.59
2019-03-11T09:13:05.576Z,22.80
2019-03-11T09:15:36.260Z,22.07
2019-03-11T09:18:06.812Z,21.02
2019-03-11T09:20:37.170Z,21.11
2019-03-11T09:23:07.308Z,20.72
2019-03-11T09:25:37.916Z,20.53
2019-03-11T09:28:08.406Z,20.07
2019-03-11T09:30:38.821Z,21.11
2019-03-11T09:33:09.391Z,21.11
2019-03-11T09:35:39.809Z,20.49
2019-03-11T09:38:10.087Z,20.04
2019-03-11T09:40:40.058Z,19.19
2019-03-11T09:43:10.211Z,17.62
2019-03-11T09:45:41.072Z,17.27
2019-03-11T09:48:11.519Z,16.71
2019-03-11T09:50:42.370Z,16.01
2019-03-11T09:53:12.678Z,16.29
2019-03-11T09:55:43.189Z,15.45
2019-03-11T09:58:13.620Z,14.61
2019-03-11T10:00:46.332Z,15.43
2019-03-11T10:03:16.797Z,16.42
2019-03-11T10:05:47.205Z,17.12
2019-03-11T10:08:17.393Z,16.85
2019-03-11T10:10:48.137Z,17.83
2019-03-11T10:13:18.684Z,17.98
2019-03-11T10:15:49.225Z,17.90
2019-03-11T10:18:19.439Z,18.63
2019-03-11T10:20:50.041Z,18.68
2019-03-11T10:23:28.407Z,19.04
2019-03-11T10:25:52.559Z,19.08
2019-03-11T10:28:22.907Z,17.70
2019-03-11T10:30:53.351Z,18.80
2019-03-11T10:33:23.963Z,19.32
2019-03-11T10:35:54.370Z,18.63
2019-03-11T10:38:24.904Z,18.65
2019-03-11T10:40:55.123Z,18.47
2019-03-11T10:43:25.395Z,16.86
2019-03-11T10:45:55.421Z,15.22
2019-03-11T10:48:36.293Z,13.94
2019-03-11T10:50:57.469Z,13.50
2019-03-11T10:53:27.425Z,12.89
2019-03-11T10:55:59.914Z,12.70
2019-03-11T10:58:30.046Z,12.60
2019-03-11T11:01:00.332Z,12.11
2019-03-11T11:03:30.992Z,12.17
2019-03-11T11:06:01.098Z,11.99
2019-03-11T11:08:31.759Z,11.61
2019-03-11T11:11:01.998Z,10.88
2019-03-11T11:13:32.349Z,10.82
2019-03-11T11:16:02.773Z,11.27
2019-03-11T11:18:33.001Z,11.52
2019-03-11T11:21:03.384Z,11.85
2019-03-11T11:23:33.510Z,13.42
2019-03-11T11:26:03.358Z,14.35
2019-03-11T11:28:33.632Z,15.12
2019-03-11T11:31:03.734Z,14.78
2019-03-11T11:33:34.106Z,13.96
2019-03-11T11:36:03.695Z,13.49
2019-03-11T11:38:33.449Z,12.81
2019-03-11T11:41:03.699Z,12.98
2019-03-11T11:43:34.129Z,12.98
2019-03-11T11:46:04.360Z,13.33
2019-03-11T11:48:34.473Z,13.65
2019-03-11T11:51:04.648Z,13.89
2019-03-11T11:53:35.043Z,13.68
2019-03-11T11:56:05.272Z,13.97
2019-03-11T11:58:35.486Z,13.59
2019-03-11T12:01:05.852Z,13.23
2019-03-11T12:03:38.861Z,13.67
2019-03-11T12:06:09.018Z,14.24
2019-03-11T12:08:39.487Z,14.34
2019-03-11T12:11:09.794Z,14.06
2019-03-11T12:13:40.506Z,13.03
2019-03-11T12:16:10.946Z,13.12
2019-03-11T12:18:41.316Z,14.30
2019-03-11T12:21:11.755Z,14.88
2019-03-11T12:23:46.205Z,15.53
2019-03-11T12:26:13.836Z,15.69
2019-03-11T12:28:47.301Z,15.21
2019-03-11T12:31:17.849Z,14.91
2019-03-11T12:33:48.384Z,15.00
2019-03-11T12:36:18.867Z,14.62
2019-03-11T12:38:49.319Z,15.31
2019-03-11T12:41:19.927Z,16.19
2019-03-11T12:43:50.673Z,16.76
2019-03-11T12:46:20.820Z,17.46
2019-03-11T12:48:51.596Z,18.60
2019-03-11T12:51:22.340Z,19.43
2019-03-11T12:53:52.453Z,19.62
2019-03-11T12:56:22.906Z,20.47
2019-03-11T12:58:53.366Z,20.93
2019-03-11T13:01:23.954Z,21.35
2019-03-11T13:03:54.612Z,21.54
2019-03-11T13:06:25.270Z,21.58
2019-03-11T13:08:55.684Z,21.54
2019-03-11T13:11:25.956Z,21.74
2019-03-11T13:13:56.482Z,21.80
2019-03-11T13:16:27.117Z,21.66
2019-03-11T13:18:59.753Z,22.61
2019-03-11T13:21:32.665Z,23.77
2019-03-11T13:24:03.347Z,23.78
2019-03-11T13:26:33.813Z,23.98
2019-03-11T13:29:04.383Z,23.61
2019-03-11T13:31:34.661Z,23.91
2019-03-11T13:34:04.944Z,23.56
2019-03-11T13:36:35.520Z,23.66
2019-03-11T13:39:07.748Z,23.37
2019-03-11T13:41:38.065Z,22.87
2019-03-11T13:44:08.964Z,23.70
2019-03-11T13:46:39.416Z,24.10
2019-03-11T13:49:09.620Z,24.01
2019-03-11T13:51:39.812Z,24.85
2019-03-11T13:54:10.027Z,24.80
2019-03-11T13:56:40.426Z,25.46
2019-03-11T13:59:11.307Z,25.53
2019-03-11T14:01:41.758Z,25.42
2019-03-11T14:04:12.308Z,25.69
2019-03-11T14:06:42.738Z,26.41
2019-03-11T14:09:13.621Z,26.75
2019-03-11T14:11:43.948Z,26.25
2019-03-11T14:14:14.451Z,26.57
2019-03-11T14:16:44.788Z,27.23
2019-03-11T14:19:15.373Z,27.19
2019-03-11T14:21:45.646Z,27.59
2019-03-11T14:24:16.055Z,27.61
2019-03-11T14:26:46.433Z,27.83
2019-03-11T14:29:16.951Z,27.78
2019-03-11T14:31:47.269Z,27.77
2019-03-11T14:34:18.183Z,27.94
2019-03-11T14:36:48.716Z,28.69
2019-03-11T14:39:18.950Z,28.40
2019-03-11T14:41:49.522Z,28.28
2019-03-11T14:44:19.611Z,28.27
2019-03-11T14:46:50.156Z,28.40
2019-03-11T14:49:20.388Z,28.15
2019-03-11T14:51:50.609Z,28.27
2019-03-11T14:54:20.553Z,28.28
2019-03-11T14:56:50.691Z,28.12
2019-03-11T14:59:21.103Z,28.23
2019-03-11T15:01:51.483Z,28.34
2019-03-11T15:04:22.065Z,28.66
2019-03-11T15:06:52.844Z,28.79
2019-03-11T15:09:23.432Z,28.99
2019-03-11T15:11:53.666Z,29.45
2019-03-11T15:14:24.168Z,29.44
2019-03-11T15:16:54.573Z,29.65
2019-03-11T15:19:24.980Z,29.74
2019-03-11T15:21:55.276Z,30.35
2019-03-11T15:24:25.923Z,30.32
2019-03-11T15:26:56.135Z,29.49
2019-03-11T15:29:26.310Z,29.53
2019-03-11T15:31:57.637Z,29.72
2019-03-11T15:34:28.243Z,29.76
2019-03-11T15:36:58.403Z,30.12
2019-03-11T15:39:28.733Z,30.31
2019-03-11T15:41:59.255Z,30.71
2019-03-11T15:44:29.591Z,30.73
2019-03-11T15:46:59.894Z,30.84
2019-03-11T15:49:30.033Z,30.89
2019-03-11T15:52:00.510Z,31.07
2019-03-11T15:54:30.961Z,31.03
2019-03-11T15:57:01.007Z,31.33
2019-03-11T15:59:31.474Z,31.36
2019-03-11T16:02:01.915Z,31.38
2019-03-11T16:04:32.469Z,31.91
2019-03-11T16:07:02.740Z,31.70
2019-03-11T16:09:32.873Z,32.01
2019-03-11T16:12:03.201Z,32.10
2019-03-11T16:14:33.815Z,32.30
2019-03-11T16:17:04.520Z,32.19
2019-03-11T16:19:34.980Z,32.05
2019-03-11T16:22:05.483Z,32.44
2019-03-11T16:24:35.742Z,32.55
2019-03-11T16:27:06.201Z,32.80
2019-03-11T16:29:36.890Z,33.28
2019-03-11T16:32:07.515Z,33.19
2019-03-11T16:34:37.727Z,33.51
2019-03-11T16:37:08.291Z,32.97
2019-03-11T16:39:38.193Z,33.19
2019-03-11T16:42:08.638Z,32.98
2019-03-11T16:44:38.917Z,33.21
2019-03-11T16:47:09.027Z,33.60
2019-03-11T16:49:39.358Z,33.74
2019-03-11T16:52:09.722Z,33.91
2019-03-11T16:54:39.801Z,33.98
2019-03-11T16:57:10.629Z,34.18
2019-03-11T16:59:40.835Z,34.26
2019-03-11T17:02:11.277Z,34.64
2019-03-11T17:04:41.576Z,34.31
2019-03-11T17:07:12.855Z,34.41
2019-03-11T17:09:43.279Z,34.19
2019-03-11T17:12:13.381Z,34.58
2019-03-11T17:14:43.388Z,34.38
2019-03-11T17:17:15.300Z,34.43
2019-03-11T17:19:45.773Z,34.95
2019-03-11T17:22:16.332Z,34.67
2019-03-11T17:24:46.763Z,34.54
2019-03-11T17:27:17.224Z,34.82
2019-03-11T17:29:47.154Z,34.89
2019-03-11T17:32:17.800Z,35.05
2019-03-11T17:34:48.313Z,34.92
2019-03-11T17:37:18.734Z,35.09
2019-03-11T17:39:49.241Z,34.96
2019-03-11T17:42:19.481Z,34.98
2019-03-11T17:44:49.999Z,35.20
2019-03-11T17:47:23.029Z,35.29
2019-03-11T17:49:54.369Z,35.26
2019-03-11T17:52:25.000Z,35.22
2019-03-11T17:54:55.332Z,34.98
2019-03-11T17:57:25.746Z,35.21
2019-03-11T17:59:56.280Z,35.06
2019-03-11T18:02:26.632Z,35.12
2019-03-11T18:04:56.905Z,35.27
2019-03-11T18:07:27.067Z,35.50
2019-03-11T18:09:58.113Z,35.50
2019-03-11T18:12:28.060Z,35.48
2019-03-11T18:14:57.980Z,35.63
2019-03-11T18:17:28.429Z,35.64
2019-03-11T18:19:58.425Z,35.63
2019-03-11T18:22:28.871Z,35.71
2019-03-11T18:24:59.297Z,35.94
2019-03-11T18:27:29.751Z,36.45
2019-03-11T18:30:00.036Z,36.29
2019-03-11T18:32:30.390Z,37.46
2019-03-11T18:35:00.901Z,37.64
2019-03-11T18:37:31.147Z,37.00
2019-03-11T18:40:03.782Z,37.84
2019-03-11T18:42:34.175Z,37.29
2019-03-11T18:45:04.578Z,37.79
2019-03-11T18:47:35.117Z,37.40
2019-03-11T18:50:06.132Z,38.09
2019-03-11T18:52:36.208Z,37.32
2019-03-11T18:55:07.006Z,36.92
2019-03-11T18:57:40.474Z,37.32
2019-03-11T19:00:12.330Z,37.45
2019-03-11T19:02:45.119Z,37.47
2019-03-11T19:05:16.248Z,37.25
2019-03-11T19:07:46.844Z,37.79
2019-03-11T19:10:17.494Z,38.60
2019-03-11T19:12:47.438Z,37.68
2019-03-11T19:15:18.237Z,38.60
2019-03-11T19:17:48.599Z,38.27
2019-03-11T19:20:19.519Z,38.73
2019-03-11T19:22:50.228Z,38.49
2019-03-11T19:25:20.341Z,38.59
2019-03-11T19:27:50.750Z,38.67
2019-03-11T19:30:24.213Z,38.89
2019-03-11T19:32:56.075Z,38.68
2019-03-11T19:35:26.808Z,39.31
2019-03-11T19:37:57.408Z,39.50
2019-03-11T19:40:27.634Z,39.39
2019-03-11T19:42:58.362Z,39.39
2019-03-11T19:45:28.621Z,39.85
2019-03-11T19:47:59.070Z,39.30
2019-03-11T19:50:30.738Z,39.45
2019-03-11T19:53:01.182Z,39.40
2019-03-11T19:55:31.647Z,39.28
2019-03-11T19:58:02.281Z,39.33
2019-03-11T20:00:32.866Z,39.33
2019-03-11T20:03:03.347Z,39.33
2019-03-11T20:05:33.956Z,39.77
2019-03-11T20:08:04.817Z,40.77
2019-03-11T20:10:35.650Z,44.04
2019-03-11T20:13:06.313Z,44.99
2019-03-11T20:15:38.211Z,46.21
2019-03-11T20:18:08.782Z,47.54
2019-03-11T20:20:39.948Z,48.26
2019-03-11T20:23:10.292Z,48.75
2019-03-11T20:25:40.739Z,49.24
2019-03-11T20:28:11.213Z,49.67
2019-03-11T20:30:41.496Z,49.84
2019-03-11T20:33:14.203Z,49.90
2019-03-11T20:35:44.746Z,49.87
2019-03-11T20:38:15.098Z,50.17
2019-03-11T20:40:45.572Z,50.41
2019-03-11T20:43:15.463Z,50.53
2019-03-11T20:45:46.001Z,50.79
2019-03-11T20:48:18.821Z,51.00
2019-03-11T20:50:51.502Z,50.98
2019-03-11T20:53:22.140Z,50.85
2019-03-11T20:55:52.913Z,50.86
2019-03-11T20:58:23.534Z,51.13
2019-03-11T21:00:53.916Z,51.31
2019-03-11T21:03:24.514Z,51.44
2019-03-11T21:05:55.328Z,51.61
2019-03-11T21:08:25.787Z,51.72
2019-03-11T21:10:56.455Z,51.68
2019-03-11T21:13:26.699Z,51.83
2019-03-11T21:15:57.182Z,52.10
2019-03-11T21:18:27.593Z,52.41
2019-03-11T21:21:04.705Z,52.55
2019-03-11T21:23:29.245Z,52.72
2019-03-11T21:26:02.183Z,52.82
2019-03-11T21:28:32.821Z,52.87
2019-03-11T21:31:03.441Z,52.77
2019-03-11T21:33:36.517Z,52.80
2019-03-11T21:36:07.039Z,52.81
2019-03-11T21:38:37.809Z,52.88
2019-03-11T21:41:08.169Z,52.91
2019-03-11T21:43:38.892Z,52.98
2019-03-11T21:46:08.629Z,53.02
2019-03-11T21:48:39.248Z,53.05
2019-03-11T21:51:09.354Z,53.28
2019-03-11T21:53:39.813Z,53.33
2019-03-11T21:56:10.417Z,53.51
2019-03-11T21:58:40.946Z,53.61
2019-03-11T22:01:13.826Z,53.71
2019-03-11T22:03:44.164Z,53.78
2019-03-11T22:06:14.131Z,53.91
2019-03-11T22:08:44.575Z,53.97
2019-03-11T22:11:14.891Z,54.10
2019-03-11T22:13:45.360Z,54.17
2019-03-11T22:16:15.806Z,54.27
2019-03-11T22:18:45.872Z,54.61
2019-03-11T22:21:16.383Z,55.04
2019-03-11T22:23:47.058Z,55.51
2019-03-11T22:26:17.559Z,55.80
2019-03-11T22:28:48.061Z,56.06
2019-03-11T22:31:20.854Z,56.33
2019-03-11T22:33:51.211Z,56.47
2019-03-11T22:36:21.741Z,56.67
2019-03-11T22:38:52.188Z,57.03
2019-03-11T22:41:22.784Z,57.52
2019-03-11T22:43:53.390Z,57.95
2019-03-11T22:46:23.937Z,58.40
2019-03-11T22:48:54.147Z,58.67
2019-03-11T22:51:24.636Z,58.74
2019-03-11T22:53:55.013Z,58.93
2019-03-11T22:56:25.545Z,59.06
2019-03-11T22:58:55.894Z,59.12
2019-03-11T23:01:26.591Z,59.12
2019-03-11T23:03:58.659Z,59.16
2019-03-11T23:06:29.092Z,59.15
2019-03-11T23:08:59.686Z,59.16
2019-03-11T23:11:29.694Z,58.87
2019-03-11T23:14:00.103Z,58.54
2019-03-11T23:16:30.520Z,58.64
2019-03-11T23:19:01.115Z,58.56
2019-03-11T23:21:31.495Z,58.68
2019-03-11T23:24:01.954Z,58.84
2019-03-11T23:26:34.704Z,58.78
2019-03-11T23:29:05.243Z,58.61
2019-03-11T23:31:35.719Z,58.13
2019-03-11T23:34:06.005Z,58.03
2019-03-11T23:36:36.397Z,57.79
2019-03-11T23:39:08.615Z,57.82
2019-03-11T23:41:39.244Z,57.96
2019-03-11T23:44:09.660Z,58.12
2019-03-11T23:46:39.983Z,58.10
2019-03-11T23:49:10.505Z,58.00
2019-03-11T23:51:41.018Z,58.03
2019-03-11T23:54:11.674Z,58.29
2019-03-11T23:56:42.266Z,58.11
2019-03-11T23:59:13.041Z,57.80
